Altama, Georgia
Current Conditions -  °F | °C
As of 6:35 AM on Thursday 27 Nov 2014 (Local Time) from KBQK Reporting Station
Clear Clear  
Wind Chill: 40°   Ceiling: Unl
Heat Index: 45°   Visibility: 10mi
Dew Point: 36°   Wind: 8mph
Humidity: 71%   Direction: 250°WSW
Pressure: 30.21"   Gusts: NA
Location:  31.1773°N, 81.4991°W
Report Text: KBQK 271135Z AUTO 25007KT 10SM CLR 07/02 A3021 RMK AO1
Loading
Personal Weather Stations






























Interactive Weather Map New forecast layout! Learn more

10-Day Weather Forecast

Advertisements
Track Severe Weather on mobile